Time;durP1;ratioP1;P1;durP2;ratioP2;P2;SDS_P1;SDS_P2;PMS_P1;PMS_P2;Temp;Humidity;BMP_temperature;BMP_pressure;BME280_temperature;BME280_humidity;BME280_pressure;Samples;Min_cycle;Max_cycle;Signal;HPM_P1;HPM_P2
2023/04/28 00:00:52;;;;;;;3.45;1.48;;;;;;;20.43;50.81;101396.63;5053625;28;20491;-54
2023/04/28 00:03:19;;;;;;;4.95;1.80;;;;;;;20.43;50.65;101399.34;5053724;28;20045;-54
2023/04/28 00:05:48;;;;;;;3.70;1.63;;;;;;;20.44;50.72;101405.56;5053268;28;20052;-55
2023/04/28 00:08:15;;;;;;;3.42;1.45;;;;;;;20.43;50.80;101402.03;5053793;28;20040;-55
2023/04/28 00:10:43;;;;;;;4.25;1.50;;;;;;;20.42;50.62;101397.63;5053847;28;20368;-56
2023/04/28 00:13:10;;;;;;;3.50;1.40;;;;;;;20.42;50.66;101389.56;5053474;28;20494;-56
2023/04/28 00:15:37;;;;;;;4.18;1.92;;;;;;;20.42;50.56;101394.94;5054211;28;20060;-56
2023/04/28 00:18:05;;;;;;;5.63;1.50;;;;;;;20.41;50.59;101393.22;5054441;28;20056;-56
2023/04/28 00:20:32;;;;;;;2.60;1.33;;;;;;;20.41;50.49;101387.81;5053751;28;20049;-56
2023/04/28 00:22:59;;;;;;;2.75;1.20;;;;;;;20.42;50.44;101394.94;5053685;28;20045;-56
2023/04/28 00:25:27;;;;;;;4.05;1.67;;;;;;;20.41;50.51;101387.81;5053760;28;20467;-56
2023/04/28 00:27:54;;;;;;;6.22;1.50;;;;;;;20.42;50.52;101388.72;5053648;28;20497;-56
2023/04/28 00:30:23;;;;;;;2.85;1.40;;;;;;;20.41;50.39;101387.81;5053627;28;20052;-55
2023/04/28 00:32:51;;;;;;;2.30;1.30;;;;;;;20.41;50.39;101381.59;5053497;28;20049;-55
2023/04/28 00:35:18;;;;;;;3.53;1.08;;;;;;;20.40;50.54;101372.69;5052507;28;20052;-55
2023/04/28 00:37:45;;;;;;;3.00;1.58;;;;;;;20.40;50.38;101372.69;5053223;28;20052;-55
2023/04/28 00:40:13;;;;;;;2.78;1.20;;;;;;;20.40;50.39;101363.75;5053435;28;20045;-55
2023/04/28 00:42:41;;;;;;;3.13;1.85;;;;;;;20.40;50.50;101361.06;5052073;28;20052;-55
2023/04/28 00:45:09;;;;;;;2.63;1.52;;;;;;;20.40;50.40;101366.44;5053333;28;20061;-56
2023/04/28 00:47:36;;;;;;;2.42;1.10;;;;;;;20.39;50.20;101365.59;5053387;28;20049;-55
2023/04/28 00:50:05;;;;;;;2.88;1.45;;;;;;;20.40;50.30;101358.38;5053387;28;20045;-55
2023/04/28 00:52:33;;;;;;;3.33;1.48;;;;;;;20.41;50.43;101357.41;5053403;28;20049;-55
2023/04/28 00:55:01;;;;;;;2.58;1.15;;;;;;;20.39;50.50;101352.16;5053596;28;20064;-55
2023/04/28 00:57:30;;;;;;;5.15;1.70;;;;;;;20.39;50.40;101351.31;5052163;28;20049;-55
2023/04/28 00:59:59;;;;;;;3.65;1.70;;;;;;;20.39;50.54;101359.38;5053466;28;20053;-55
2023/04/28 01:02:28;;;;;;;2.33;1.23;;;;;;;20.38;50.36;101358.53;5053495;28;20395;-56
2023/04/28 01:04:59;;;;;;;3.45;1.45;;;;;;;20.38;50.51;101366.59;5053272;28;20048;-56
2023/04/28 01:07:27;;;;;;;4.03;1.38;;;;;;;20.38;50.35;101355.84;5051908;28;20049;-55
2023/04/28 01:09:55;;;;;;;4.63;1.50;;;;;;;20.38;50.50;101349.59;5052197;28;20053;-55
2023/04/28 01:12:27;;;;;;;3.55;1.40;;;;;;;20.38;50.49;101346.91;5051574;28;20483;-58
2023/04/28 01:14:56;;;;;;;3.25;1.33;;;;;;;20.39;50.58;101356.69;5052635;28;20045;-56
2023/04/28 01:17:24;;;;;;;2.85;1.50;;;;;;;20.38;50.41;101346.91;5052975;28;20483;-55
2023/04/28 01:19:52;;;;;;;3.78;1.52;;;;;;;20.38;50.49;101347.75;5055328;28;20067;-55
2023/04/28 01:22:19;;;;;;;2.95;1.50;;;;;;;20.38;50.63;101344.22;5055828;28;20402;-55
2023/04/28 01:24:46;;;;;;;3.85;1.50;;;;;;;20.38;50.60;101345.06;5056840;28;20045;-55
2023/04/28 01:27:14;;;;;;;2.72;1.40;;;;;;;20.36;50.54;101341.66;5055858;28;20060;-55
2023/04/28 01:29:41;;;;;;;3.28;1.30;;;;;;;20.37;50.40;101345.19;5055561;28;20467;-56
2023/04/28 01:32:09;;;;;;;3.78;1.45;;;;;;;20.36;50.42;101352.41;5056667;28;20053;-55
2023/04/28 01:34:36;;;;;;;2.05;1.08;;;;;;;20.36;50.56;101354.25;5054969;28;20053;-56
2023/04/28 01:37:05;;;;;;;2.80;1.45;;;;;;;20.36;50.62;101356.94;5055612;28;20059;-55
2023/04/28 01:39:33;;;;;;;2.70;1.48;;;;;;;20.36;50.38;101362.31;5055436;28;20045;-55
2023/04/28 01:42:02;;;;;;;3.33;1.50;;;;;;;20.36;50.36;101370.38;5055394;28;20057;-55
2023/04/28 01:44:30;;;;;;;2.15;1.15;;;;;;;20.36;50.56;101373.91;5054639;28;20045;-55
2023/04/28 01:46:57;;;;;;;2.97;1.40;;;;;;;20.35;50.42;101376.75;5056108;28;20041;-56
2023/04/28 01:49:25;;;;;;;2.85;1.40;;;;;;;20.35;50.29;101377.59;5056189;28;20048;-56
2023/04/28 01:51:52;;;;;;;3.30;1.38;;;;;;;20.35;50.45;101380.28;5055070;28;20056;-56
2023/04/28 01:54:19;;;;;;;3.85;2.00;;;;;;;20.35;50.53;101379.44;5054859;28;20384;-55
2023/04/28 01:56:48;;;;;;;3.42;1.30;;;;;;;20.34;50.51;101388.47;5055143;28;20060;-55
2023/04/28 01:59:18;;;;;;;2.17;1.15;;;;;;;20.34;50.30;101385.78;5055117;28;20046;-56
2023/04/28 02:01:46;;;;;;;5.68;1.58;;;;;;;20.34;50.21;101385.78;5056270;28;20071;-56
2023/04/28 02:04:13;;;;;;;3.58;1.38;;;;;;;20.34;50.35;101408.16;5054616;28;20052;-55
2023/04/28 02:06:41;;;;;;;2.30;1.30;;;;;;;20.34;50.34;101408.16;5055019;28;20049;-55
2023/04/28 02:09:08;;;;;;;2.45;1.25;;;;;;;20.34;50.35;101407.31;5055042;28;20049;-56
2023/04/28 02:11:36;;;;;;;3.78;1.70;;;;;;;20.33;50.35;101410.94;5054642;28;20048;-55
2023/04/28 02:14:03;;;;;;;3.10;1.35;;;;;;;20.33;50.27;101409.13;5054040;28;20052;-56
2023/04/28 02:16:31;;;;;;;2.20;1.15;;;;;;;20.32;50.33;101412.78;5054853;28;20064;-56
2023/04/28 02:18:59;;;;;;;2.40;1.35;;;;;;;20.33;50.25;101402.88;5055796;28;20045;-55
2023/04/28 02:21:27;;;;;;;2.60;1.45;;;;;;;20.33;50.25;101408.25;5055743;28;20049;-55
2023/04/28 02:23:54;;;;;;;2.95;1.40;;;;;;;20.32;50.37;101402.03;5055738;28;20055;-55
2023/04/28 02:26:23;;;;;;;3.25;1.50;;;;;;;20.33;50.34;101402.88;5055479;28;20052;-55
2023/04/28 02:28:51;;;;;;;2.63;1.50;;;;;;;20.31;50.34;101408.41;5055057;28;20049;-55
2023/04/28 02:31:18;;;;;;;2.95;1.48;;;;;;;20.31;50.40;101403.03;5055479;28;20049;-56
2023/04/28 02:33:46;;;;;;;2.50;1.42;;;;;;;20.31;50.28;101404.84;5054117;28;20056;-55
2023/04/28 02:36:13;;;;;;;2.50;1.50;;;;;;;20.31;50.44;101404.84;5055606;28;20045;-56
2023/04/28 02:38:40;;;;;;;4.78;1.55;;;;;;;20.31;50.40;101397.63;5055303;28;20064;-56
2023/04/28 02:41:08;;;;;;;3.83;1.50;;;;;;;20.31;50.46;101400.34;5055211;28;20475;-55
2023/04/28 02:43:36;;;;;;;2.70;1.50;;;;;;;20.30;50.33;101398.63;5055334;28;20072;-55
2023/04/28 02:46:04;;;;;;;2.75;1.63;;;;;;;20.31;50.42;101396.78;5055326;28;20060;-55
2023/04/28 02:48:34;;;;;;;3.85;1.95;;;;;;;20.30;50.41;101384.34;5053661;28;20049;-55
2023/04/28 02:51:02;;;;;;;2.95;1.50;;;;;;;20.32;50.28;101385.03;5054261;28;20079;-55
2023/04/28 02:53:30;;;;;;;2.95;1.65;;;;;;;20.31;50.39;101388.72;5037131;28;20049;-55
2023/04/28 02:55:58;;;;;;;2.58;1.65;;;;;;;20.30;50.39;101384.34;5054756;28;20052;-55
2023/04/28 02:58:25;;;;;;;2.50;1.40;;;;;;;20.29;50.40;101388.81;5053714;28;20403;-54
2023/04/28 03:00:53;;;;;;;3.92;1.90;;;;;;;20.30;50.36;101385.19;5053644;28;20060;-55
2023/04/28 03:03:20;;;;;;;3.22;1.60;;;;;;;20.30;50.45;101389.72;5053192;28;20067;-55
2023/04/28 03:05:48;;;;;;;5.32;1.52;;;;;;;20.31;50.96;101383.34;5053903;28;20060;-55
2023/04/28 03:08:15;;;;;;;3.03;1.65;;;;;;;20.32;51.10;101387.75;5053885;28;20068;-55
2023/04/28 03:10:43;;;;;;;2.40;1.27;;;;;;;20.31;50.85;101381.50;5054473;28;20368;-56
2023/04/28 03:13:11;;;;;;;5.28;1.70;;;;;;;20.32;50.94;101387.75;5054575;28;20052;-56
2023/04/28 03:15:38;;;;;;;3.45;1.50;;;;;;;20.32;50.91;101391.28;5053672;28;20065;-55
2023/04/28 03:18:06;;;;;;;2.80;1.50;;;;;;;20.32;50.81;101401.19;5053672;28;20076;-56
2023/04/28 03:20:33;;;;;;;4.07;1.70;;;;;;;20.31;50.91;101397.63;5053519;28;20475;-55
2023/04/28 03:23:01;;;;;;;2.78;1.17;;;;;;;20.30;50.75;101395.09;5052958;28;20491;-54
2023/04/28 03:25:29;;;;;;;2.50;1.60;;;;;;;20.31;50.64;101400.34;5053431;28;20052;-55
2023/04/28 03:27:56;;;;;;;4.20;1.40;;;;;;;20.30;50.88;101406.69;5054484;28;20068;-55
2023/04/28 03:30:25;;;;;;;4.97;1.83;;;;;;;20.30;50.69;101395.09;5053521;28;20060;-55
2023/04/28 03:32:52;;;;;;;2.53;1.63;;;;;;;20.29;50.51;101407.66;5054208;28;20055;-55
2023/04/28 03:35:20;;;;;;;2.80;1.38;;;;;;;20.29;50.64;101409.50;5054115;28;20040;-55
2023/04/28 03:37:48;;;;;;;2.80;1.65;;;;;;;20.28;50.49;101405.94;5053196;28;20399;-55
2023/04/28 03:40:15;;;;;;;3.97;1.73;;;;;;;20.29;50.45;101412.19;5052348;28;20049;-56
2023/04/28 03:43:21;;;;;;;2.88;1.60;;;;;;;20.28;50.58;101416.69;5053867;28;20048;-56
2023/04/28 03:46:08;;;;;;;2.30;1.30;;;;;;;20.27;50.42;101412.31;5053817;28;20057;-55
2023/04/28 03:48:36;;;;;;;3.70;1.60;;;;;;;20.28;50.32;101407.78;5052934;28;20065;-55
2023/04/28 03:51:03;;;;;;;3.97;1.63;;;;;;;20.26;50.35;101399.84;5052969;28;20056;-55
2023/04/28 03:53:30;;;;;;;3.63;1.20;;;;;;;20.26;50.33;101397.16;5054154;28;20057;-54
2023/04/28 03:55:58;;;;;;;3.25;1.55;;;;;;;20.26;50.25;101399.84;5052013;28;20059;-55
2023/04/28 03:58:26;;;;;;;2.88;1.60;;;;;;;20.24;50.39;101396.41;5052288;28;20049;-55
2023/04/28 04:00:54;;;;;;;3.22;1.60;;;;;;;20.24;50.27;101397.28;5052250;28;20052;-55
2023/04/28 04:03:24;;;;;;;2.63;1.63;;;;;;;20.25;50.13;101401.69;5052334;28;20067;-54
2023/04/28 04:05:55;;;;;;;3.85;1.60;;;;;;;20.24;50.28;101399.97;5052376;28;20356;-55
2023/04/28 04:08:23;;;;;;;3.65;1.50;;;;;;;20.25;50.24;101403.50;5053200;28;20056;-54
2023/04/28 04:10:51;;;;;;;2.28;1.40;;;;;;;20.24;50.16;101408.03;5053018;28;20060;-55
2023/04/28 04:13:19;;;;;;;3.65;1.73;;;;;;;20.24;50.42;101410.72;5053211;28;20049;-53
2023/04/28 04:15:47;;;;;;;2.42;1.45;;;;;;;20.24;50.32;101401.81;5052224;28;20052;-54
2023/04/28 04:18:15;;;;;;;2.38;1.30;;;;;;;20.22;50.28;101396.56;5051940;28;20049;-55
2023/04/28 04:21:08;;;;;;;;;;;;;;;20.22;50.32;101391.19;5053561;28;20049;-56
2023/04/28 04:23:36;;;;;;;3.40;1.67;;;;;;;20.21;50.32;101392.13;5035792;28;19921;-56
2023/04/28 04:26:03;;;;;;;3.00;1.65;;;;;;;20.21;50.37;101389.44;5051922;28;20072;-55
2023/04/28 04:28:31;;;;;;;5.03;1.70;;;;;;;20.22;50.34;101399.25;5052395;28;20191;-56
2023/04/28 04:30:58;;;;;;;3.60;1.58;;;;;;;20.23;50.39;101400.09;5052060;28;20049;-55
2023/04/28 04:33:26;;;;;;;3.80;1.67;;;;;;;20.22;50.32;101393.03;5053295;28;20071;-56
2023/04/28 04:35:53;;;;;;;3.45;1.73;;;;;;;20.21;50.24;101392.13;5052321;28;20057;-55
2023/04/28 04:38:20;;;;;;;2.70;1.50;;;;;;;20.22;50.37;101396.56;5053116;28;20545;-56
2023/04/28 04:40:48;;;;;;;2.95;1.60;;;;;;;20.22;50.19;101401.09;5035734;28;20041;-55
2023/04/28 04:43:15;;;;;;;3.03;1.45;;;;;;;20.22;50.40;101409.16;5052071;28;20060;-53
2023/04/28 04:45:47;;;;;;;3.35;1.80;;;;;;;20.21;50.30;101418.16;5052442;28;20049;-55
2023/04/28 04:48:15;;;;;;;3.22;1.73;;;;;;;20.20;50.36;101417.31;5052224;28;20040;-55
2023/04/28 04:50:43;;;;;;;3.13;1.58;;;;;;;20.19;50.31;101426.38;5052419;28;20049;-55
2023/04/28 04:53:11;;;;;;;2.45;1.45;;;;;;;20.20;50.28;101425.38;5055001;28;20596;-55
2023/04/28 04:55:43;;;;;;;3.30;1.53;;;;;;;20.20;50.21;101419.16;5056132;28;20049;-55
2023/04/28 04:58:10;;;;;;;3.35;1.85;;;;;;;20.20;50.15;101420.00;5056182;28;20052;-55
2023/04/28 05:01:01;;;;;;;3.58;1.45;;;;;;;20.20;50.16;101427.22;5056933;28;20072;-55
2023/04/28 05:03:28;;;;;;;3.05;1.67;;;;;;;20.20;50.13;101427.22;5055607;28;20049;-55
2023/04/28 05:05:56;;;;;;;2.45;1.65;;;;;;;20.19;50.20;101414.75;5055515;28;20376;-55
2023/04/28 05:08:42;;;;;;;2.63;1.60;;;;;;;20.20;50.19;101422.69;5055739;28;20534;-55
2023/04/28 05:11:09;;;;;;;2.83;1.42;;;;;;;20.18;50.04;101419.28;5056969;28;20053;-56
2023/04/28 05:13:39;;;;;;;2.85;1.70;;;;;;;20.17;50.24;101422.94;5055436;28;20472;-56
2023/04/28 05:16:06;;;;;;;2.83;1.30;;;;;;;20.18;50.10;101424.66;5057102;28;20048;-56
2023/04/28 05:18:37;;;;;;;3.85;1.58;;;;;;;20.17;50.03;101436.38;5056887;28;20049;-55
2023/04/28 05:21:05;;;;;;;3.85;1.60;;;;;;;20.17;50.15;101433.69;5055009;28;20392;-55
2023/04/28 05:23:33;;;;;;;3.95;2.17;;;;;;;20.17;50.22;101435.53;5055066;28;20057;-55
2023/04/28 05:26:01;;;;;;;2.70;1.35;;;;;;;20.17;50.20;101438.22;5055440;28;20057;-55
2023/04/28 05:28:30;;;;;;;5.28;1.70;;;;;;;20.17;50.11;101443.59;5055770;28;20376;-55
2023/04/28 05:31:00;;;;;;;3.25;1.92;;;;;;;20.16;50.10;101448.13;5055749;28;20053;-55
2023/04/28 05:33:29;;;;;;;3.80;1.60;;;;;;;20.17;50.37;101448.97;5039301;28;20053;-55
2023/04/28 05:35:57;;;;;;;3.22;1.58;;;;;;;20.18;50.10;101446.16;5055058;28;20495;-54
2023/04/28 05:38:24;;;;;;;4.70;2.28;;;;;;;20.18;50.31;101446.16;5055446;28;20060;-53
2023/04/28 05:40:53;;;;;;;2.80;1.40;;;;;;;20.18;50.10;101448.88;5055432;28;20064;-56
2023/04/28 05:43:20;;;;;;;6.05;2.08;;;;;;;20.19;50.06;101447.88;5055375;28;20053;-56
2023/04/28 05:45:49;;;;;;;4.13;2.25;;;;;;;20.18;50.30;101453.38;5054976;28;20053;-56
2023/04/28 05:48:17;;;;;;;3.97;1.77;;;;;;;20.18;50.13;101456.06;5055648;28;20511;-56
2023/04/28 05:50:44;;;;;;;4.55;2.05;;;;;;;20.18;50.33;101456.06;5056328;28;20041;-55
2023/04/28 05:53:12;;;;;;;4.35;1.67;;;;;;;20.17;50.23;101447.13;5056095;28;20051;-54
2023/04/28 05:55:40;;;;;;;4.18;1.88;;;;;;;20.18;50.33;101453.38;5056159;28;20045;-54
2023/04/28 05:58:08;;;;;;;5.45;1.75;;;;;;;20.17;50.31;101449.81;5055214;28;20053;-55
2023/04/28 06:00:37;;;;;;;3.58;2.00;;;;;;;20.18;50.45;101450.69;5055095;28;20068;-55
2023/04/28 06:03:04;;;;;;;3.60;1.90;;;;;;;20.18;50.49;101445.31;5055827;28;20064;-55
2023/04/28 06:05:32;;;;;;;4.93;1.88;;;;;;;20.16;50.62;101450.81;5055169;28;20049;-54
2023/04/28 06:08:00;;;;;;;4.18;2.08;;;;;;;20.16;50.64;101453.50;5054446;28;20442;-55
2023/04/28 06:10:27;;;;;;;5.75;2.28;;;;;;;20.18;50.56;101448.00;5054846;28;20048;-54
2023/04/28 06:12:55;;;;;;;3.35;2.13;;;;;;;20.16;50.57;101436.50;5055748;28;20064;-55
2023/04/28 06:15:22;;;;;;;3.10;1.88;;;;;;;20.17;50.77;101431.00;5054702;28;20060;-54
2023/04/28 06:17:50;;;;;;;3.17;1.85;;;;;;;20.17;50.76;101428.31;5054815;28;20053;-54
2023/04/28 06:20:17;;;;;;;3.17;1.92;;;;;;;20.18;51.05;101423.81;5054348;28;20376;-55
2023/04/28 06:22:45;;;;;;;5.13;2.28;;;;;;;20.18;50.98;101437.25;5054512;28;20072;-55
2023/04/28 06:25:12;;;;;;;6.88;2.70;;;;;;;20.19;51.00;101434.44;5054559;28;20060;-55
2023/04/28 06:27:45;;;;;;;6.20;2.42;;;;;;;20.20;51.11;101440.66;5054351;28;20076;-55
2023/04/28 06:30:20;;;;;;;6.25;2.50;;;;;;;20.21;51.26;101440.53;5055601;28;20045;-56
2023/04/28 06:32:47;;;;;;;3.53;2.15;;;;;;;20.21;51.12;101437.84;5055373;28;20049;-56
2023/04/28 06:35:15;;;;;;;4.20;2.08;;;;;;;20.22;51.32;101447.63;5055366;28;20048;-56
2023/04/28 06:37:42;;;;;;;4.45;2.45;;;;;;;20.23;51.46;101443.13;5055307;28;20045;-56
2023/04/28 06:40:10;;;;;;;7.45;2.47;;;;;;;20.23;51.14;101441.28;5055316;28;20049;-54
2023/04/28 06:42:41;;;;;;;9.70;2.70;;;;;;;20.23;51.23;101435.91;5054302;28;20057;-55
2023/04/28 06:45:17;;;;;;;4.85;2.35;;;;;;;20.24;51.49;101434.91;5054162;28;20120;-55
2023/04/28 06:47:45;;;;;;;7.90;2.72;;;;;;;20.25;51.85;101431.28;5053372;28;20061;-54
2023/04/28 06:50:12;;;;;;;6.68;3.20;;;;;;;20.27;51.52;101435.66;5055340;28;20045;-56
2023/04/28 06:52:40;;;;;;;5.88;2.88;;;;;;;20.27;51.73;101435.66;5054989;28;20045;-56
2023/04/28 06:55:08;;;;;;;6.10;3.78;;;;;;;20.28;51.81;101440.06;5054993;28;20049;-54
2023/04/28 06:57:36;;;;;;;5.78;2.90;;;;;;;20.28;51.67;101440.91;5052759;28;20052;-54
2023/04/28 07:00:05;;;;;;;5.18;3.50;;;;;;;20.29;51.38;101441.75;5054716;28;20049;-53
2023/04/28 07:02:32;;;;;;;4.47;2.78;;;;;;;20.29;51.59;101437.22;5052805;28;20040;-55
2023/04/28 07:05:00;;;;;;;5.15;3.17;;;;;;;20.30;51.68;101438.09;5054355;28;20060;-55
2023/04/28 07:07:27;;;;;;;12.32;3.47;;;;;;;20.30;51.43;101432.72;5054364;28;20383;-56
2023/04/28 07:09:55;;;;;;;5.90;3.40;;;;;;;20.32;51.36;101433.44;5054301;28;20055;-56
2023/04/28 07:12:22;;;;;;;5.22;3.25;;;;;;;20.33;51.49;101435.16;5054230;28;20049;-56
2023/04/28 07:14:50;;;;;;;6.50;3.97;;;;;;;20.34;51.67;101436.88;5053510;28;20495;-55
2023/04/28 07:17:17;;;;;;;7.93;3.53;;;;;;;20.34;51.66;101440.44;5054038;28;20048;-55
2023/04/28 07:19:48;;;;;;;7.43;3.78;;;;;;;20.36;51.61;101432.22;5053233;28;20056;-56
2023/04/28 07:22:16;;;;;;;6.10;4.13;;;;;;;20.37;51.60;101432.09;5054078;28;20037;-57
2023/04/28 07:24:43;;;;;;;5.68;3.97;;;;;;;20.39;51.50;101437.34;5054015;28;20045;-57
2023/04/28 07:27:11;;;;;;;7.47;4.13;;;;;;;20.40;51.46;101444.44;5054089;28;20045;-56
2023/04/28 07:29:38;;;;;;;6.88;4.55;;;;;;;20.41;51.44;101444.31;5054655;28;20063;-56
2023/04/28 07:32:09;;;;;;;10.00;3.97;;;;;;;20.43;51.47;101452.28;5053937;28;20048;-57
2023/04/28 07:34:36;;;;;;;7.47;3.97;;;;;;;20.42;51.34;101442.50;5054038;28;20045;-57
2023/04/28 07:37:04;;;;;;;8.18;3.75;;;;;;;20.43;51.41;101439.66;5053870;28;20052;-57
2023/04/28 07:39:33;;;;;;;7.15;3.72;;;;;;;20.45;51.33;101437.69;5053826;28;20040;-56
2023/04/28 07:42:01;;;;;;;11.70;6.10;;;;;;;20.45;51.32;101439.53;5052487;28;20041;-56
2023/04/28 07:44:30;;;;;;;8.55;5.65;;;;;;;20.45;51.32;101434.16;5053633;28;20049;-55
2023/04/28 07:47:01;;;;;;;10.95;8.60;;;;;;;20.46;51.28;101441.28;5053272;28;20056;-56
2023/04/28 07:49:30;;;;;;;11.60;7.72;;;;;;;20.45;51.25;101440.38;5053538;28;20056;-57
2023/04/28 07:51:57;;;;;;;9.30;7.72;;;;;;;20.44;51.20;101436.00;5053620;28;20048;-57
2023/04/28 07:54:24;;;;;;;12.18;9.05;;;;;;;20.43;51.23;101436.13;5053429;28;20399;-57
2023/04/28 07:56:52;;;;;;;13.23;9.25;;;;;;;20.43;51.25;101428.06;5053234;28;20495;-57
2023/04/28 07:59:19;;;;;;;9.82;8.35;;;;;;;20.44;50.85;101440.53;5053326;28;20048;-57
2023/04/28 08:01:47;;;;;;;10.65;8.13;;;;;;;20.42;50.73;101443.34;5053345;28;20394;-57
2023/04/28 08:04:14;;;;;;;10.07;8.18;;;;;;;20.42;50.68;101448.72;5053095;28;20045;-57
2023/04/28 08:06:42;;;;;;;12.38;8.00;;;;;;;20.43;50.41;101454.97;5053144;28;20045;-57
2023/04/28 08:09:10;;;;;;;9.00;6.93;;;;;;;20.43;50.12;101455.81;5053437;28;20045;-56
2023/04/28 08:11:37;;;;;;;10.18;7.43;;;;;;;20.43;50.24;101461.19;5053294;28;20048;-56
2023/04/28 08:14:04;;;;;;;11.25;6.07;;;;;;;20.43;50.25;101465.72;5053192;28;20076;-55
2023/04/28 08:16:35;;;;;;;8.88;7.07;;;;;;;20.45;50.39;101455.66;5036985;28;20037;-56
2023/04/28 08:19:03;;;;;;;10.45;5.00;;;;;;;20.46;50.66;101462.78;5036766;28;20075;-57
2023/04/28 08:21:31;;;;;;;7.53;5.80;;;;;;;20.46;50.79;101452.88;5052831;28;20056;-57
2023/04/28 08:23:59;;;;;;;7.63;4.80;;;;;;;20.47;50.77;101446.50;5053131;28;20053;-56
2023/04/28 08:26:26;;;;;;;6.80;4.88;;;;;;;20.47;50.75;101440.28;5052712;28;20056;-56
2023/04/28 08:28:53;;;;;;;6.82;5.47;;;;;;;20.48;50.92;101439.28;5051404;28;20053;-56
2023/04/28 08:31:20;;;;;;;9.48;7.07;;;;;;;20.52;50.27;101442.63;5052871;28;20045;-57
2023/04/28 08:33:50;;;;;;;7.07;5.90;;;;;;;20.52;50.57;101432.72;5052870;28;20057;-57
2023/04/28 08:36:17;;;;;;;8.50;5.60;;;;;;;20.53;50.57;101434.41;5052879;28;20041;-57
2023/04/28 08:38:45;;;;;;;5.10;4.32;;;;;;;20.54;50.55;101428.09;5053003;28;20653;-57
2023/04/28 08:41:14;;;;;;;6.97;4.30;;;;;;;20.54;50.68;101433.47;5053038;28;20052;-56
2023/04/28 08:43:42;;;;;;;6.72;4.93;;;;;;;20.55;50.74;101428.94;5052853;28;20052;-55
2023/04/28 08:46:09;;;;;;;7.10;4.85;;;;;;;20.55;50.55;101432.47;5052977;28;20052;-56
2023/04/28 08:48:40;;;;;;;8.50;5.30;;;;;;;20.55;50.51;101432.47;5053273;28;20053;-56
2023/04/28 08:51:08;;;;;;;7.70;5.10;;;;;;;20.55;50.68;101421.72;5053074;28;20053;-57
2023/04/28 08:53:38;;;;;;;5.53;4.63;;;;;;;20.57;50.87;101427.81;5053087;28;20056;-57
2023/04/28 08:56:30;;;;;;;5.65;4.30;;;;;;;20.58;50.88;101426.84;5052890;28;20060;-57
2023/04/28 08:59:02;;;;;;;6.10;4.20;;;;;;;20.57;51.10;101435.88;5052569;28;20057;-57
2023/04/28 09:01:30;;;;;;;6.60;4.30;;;;;;;20.60;51.10;101440.16;5052747;28;20049;-57
2023/04/28 09:04:01;;;;;;;6.97;4.10;;;;;;;20.61;50.96;101439.19;5052753;28;20041;-56
2023/04/28 09:06:37;;;;;;;6.05;4.80;;;;;;;20.60;50.81;101430.25;5052630;28;20049;-56
2023/04/28 09:09:17;;;;;;;4.53;3.45;;;;;;;20.60;51.10;101424.88;5052728;28;20049;-58
2023/04/28 09:11:58;;;;;;;6.80;3.83;;;;;;;20.60;51.12;101432.94;5052382;28;20483;-57
2023/04/28 09:14:31;;;;;;;5.72;4.28;;;;;;;20.59;51.21;101430.41;5052660;28;20683;-56
2023/04/28 09:16:59;;;;;;;;;;;;;;;20.60;51.32;101426.72;5053841;28;20045;-56
2023/04/28 09:19:35;;;;;;;6.10;4.40;;;;;;;20.58;51.55;101429.53;5072658;28;19927;-59
2023/04/28 09:22:06;;;;;;;5.65;5.03;;;;;;;20.58;51.86;101432.22;5072346;28;20048;-59
2023/04/28 09:24:47;;;;;;;9.82;5.00;;;;;;;20.58;53.34;101431.34;5072193;28;20048;-59
2023/04/28 09:27:14;;;;;;;11.50;6.93;;;;;;;20.56;52.46;101425.25;5072443;28;20052;-59
2023/04/28 09:29:53;;;;;;;7.95;5.93;;;;;;;20.55;53.02;101420.88;5072711;28;20051;-56
2023/04/28 09:32:21;;;;;;;10.93;9.77;;;;;;;20.54;53.01;101414.63;5072301;28;20052;-56
2023/04/28 09:34:55;;;;;;;10.23;6.50;;;;;;;20.55;54.06;101399.34;5072487;28;20056;-56
2023/04/28 09:37:29;;;;;;;8.55;5.68;;;;;;;20.54;55.80;101403.88;5072372;28;20043;-56
2023/04/28 09:40:06;;;;;;;9.27;6.10;;;;;;;20.54;53.93;101403.88;5076146;28;20067;-56
2023/04/28 09:42:41;;;;;;;8.68;5.60;;;;;;;20.53;53.52;101409.38;5075650;28;20034;-56
2023/04/28 09:45:10;;;;;;;8.07;5.93;;;;;;;20.54;55.84;101413.75;5076043;28;20049;-55
2023/04/28 09:47:43;;;;;;;8.68;5.25;;;;;;;20.53;56.11;101422.81;5075237;28;20059;-56
2023/04/28 09:50:13;;;;;;;9.23;7.65;;;;;;;20.52;55.09;101416.56;5075779;28;20382;-56
2023/04/28 09:52:43;;;;;;;9.52;5.82;;;;;;;20.52;54.06;101413.88;5075508;28;20047;-56
2023/04/28 09:55:11;;;;;;;8.13;5.75;;;;;;;20.51;55.28;101419.41;5075957;28;20048;-55
2023/04/28 09:57:39;;;;;;;7.72;6.35;;;;;;;20.51;56.38;101419.41;5074312;28;20040;-56
2023/04/28 10:00:08;;;;;;;7.50;6.15;;;;;;;20.49;55.48;101412.28;5075548;28;20047;-59
2023/04/28 10:02:36;;;;;;;9.07;5.70;;;;;;;20.51;55.82;101416.72;5075312;28;20052;-59
2023/04/28 10:05:08;;;;;;;7.72;5.82;;;;;;;20.50;57.15;101410.50;5074562;28;20395;-59
2023/04/28 10:07:37;;;;;;;6.93;5.63;;;;;;;20.51;56.65;101411.34;5075250;28;20051;-59
2023/04/28 10:10:06;;;;;;;7.95;6.07;;;;;;;20.49;56.44;101409.59;5075227;28;20057;-56
2023/04/28 10:12:36;;;;;;;7.47;6.18;;;;;;;20.50;57.62;101399.72;5072595;28;20045;-56
2023/04/28 10:15:07;;;;;;;10.27;7.38;;;;;;;20.49;56.65;101406.06;5055614;28;20387;-56
2023/04/28 10:17:35;;;;;;;8.50;6.18;;;;;;;20.49;57.93;101400.69;5055485;28;20491;-56
2023/04/28 10:20:04;;;;;;;8.77;6.65;;;;;;;20.48;56.56;101405.22;5055329;28;20498;-56
2023/04/28 10:23:02;;;;;;;8.55;6.97;;;;;;;20.49;57.76;101389.94;5055229;28;20395;-56
2023/04/28 10:25:33;;;;;;;7.57;6.47;;;;;;;20.51;57.38;101385.28;5054657;28;20112;-55
2023/04/28 10:28:04;;;;;;;9.38;6.90;;;;;;;20.51;57.76;101371.84;5055306;28;20060;-56
2023/04/28 10:30:33;;;;;;;8.75;6.72;;;;;;;20.51;56.34;101381.75;5055274;28;20056;-56
2023/04/28 10:33:12;;;;;;;8.23;6.55;;;;;;;20.50;56.89;101370.13;5054666;28;20041;-56
2023/04/28 10:35:42;;;;;;;7.43;5.90;;;;;;;20.50;57.88;101351.31;5054996;28;20070;-56
2023/04/28 10:38:11;;;;;;;8.10;5.90;;;;;;;20.50;57.82;101354.00;5055096;28;20052;-56
2023/04/28 10:40:45;;;;;;;7.63;5.72;;;;;;;20.50;58.04;101354.00;5055049;28;20041;-59
2023/04/28 10:43:35;;;;;;;8.38;6.40;;;;;;;20.50;58.46;101354.00;5054418;28;20060;-59
2023/04/28 10:46:07;;;;;;;8.88;6.25;;;;;;;20.50;58.85;101354.00;5054892;28;20045;-59
2023/04/28 10:48:47;;;;;;;7.25;6.07;;;;;;;20.49;58.85;101345.06;5054750;28;20041;-59
2023/04/28 10:51:14;;;;;;;8.20;6.22;;;;;;;20.50;59.16;101345.94;5052981;28;20060;-59
2023/04/28 10:53:44;;;;;;;6.85;5.70;;;;;;;20.49;58.40;101346.88;5054819;28;20395;-56
2023/04/28 10:56:17;;;;;;;8.90;6.13;;;;;;;20.48;58.41;101340.66;5054743;28;20052;-55
2023/04/28 10:58:47;;;;;;;9.23;5.88;;;;;;;20.48;58.83;101334.41;5054608;28;20053;-55
2023/04/28 11:01:20;;;;;;;8.10;5.43;;;;;;;20.49;58.94;101336.13;5053501;28;20499;-58
2023/04/28 11:03:50;;;;;;;7.55;5.05;;;;;;;20.49;59.29;101334.28;5054600;28;20045;-59
2023/04/28 11:06:25;;;;;;;6.82;5.03;;;;;;;20.49;59.62;101323.53;5054209;28;20052;-59
2023/04/28 11:08:59;;;;;;;9.27;6.10;;;;;;;20.51;59.23;101331.50;5053350;28;20514;-59
2023/04/28 11:11:28;;;;;;;8.98;5.68;;;;;;;20.51;59.45;101319.88;5054446;28;20471;-56
2023/04/28 11:14:18;;;;;;;8.25;6.03;;;;;;;20.50;59.43;101324.41;5036507;28;20053;-56
2023/04/28 11:16:58;;;;;;;7.47;5.60;;;;;;;20.49;59.13;101315.47;5054111;28;20037;-55
2023/04/28 11:19:27;;;;;;;7.53;6.20;;;;;;;20.50;58.81;101319.03;5054307;28;20574;-56
2023/04/28 11:21:57;;;;;;;7.13;5.50;;;;;;;20.51;59.03;101322.56;5054280;28;20418;-55
2023/04/28 11:24:26;;;;;;;6.25;4.80;;;;;;;20.51;58.91;101317.19;5054159;28;20048;-55
2023/04/28 11:26:54;;;;;;;6.13;5.45;;;;;;;20.51;58.97;101320.75;5054197;28;20052;-55
2023/04/28 11:29:38;;;;;;;8.80;5.85;;;;;;;20.52;58.42;101316.22;5054339;28;20402;-56
2023/04/28 11:32:05;;;;;;;;;;;;;;;20.51;58.55;101315.34;5054433;28;20044;-55
2023/04/28 11:34:33;;;;;;;13.80;9.60;;;;;;;20.52;57.63;101310.81;5053468;28;19920;-55